createdAt,value
2019-04-14T00:00:34.250Z,38
2019-04-14T00:03:45.405Z,38.1
2019-04-14T00:06:56.847Z,38.1
2019-04-14T00:10:07.752Z,38.1
2019-04-14T00:13:18.110Z,38.1
2019-04-14T00:16:29.097Z,38.1
2019-04-14T00:19:39.074Z,38
2019-04-14T00:22:49.722Z,38
2019-04-14T00:25:59.273Z,38
2019-04-14T00:29:10.852Z,38.1
2019-04-14T00:32:21.113Z,38.1
2019-04-14T00:35:32.707Z,38.1
2019-04-14T00:38:46.240Z,38
2019-04-14T00:42:02.050Z,38
2019-04-14T00:45:16.085Z,38.1
2019-04-14T00:49:07.750Z,38.1
2019-04-14T00:52:19.640Z,38.1
2019-04-14T00:55:32.126Z,38.1
2019-04-14T00:58:41.868Z,38.1
2019-04-14T01:01:52.418Z,38.1
2019-04-14T01:05:04.168Z,38
2019-04-14T01:08:14.687Z,38.1
2019-04-14T01:11:25.477Z,38.1
2019-04-14T01:14:35.230Z,38.1
2019-04-14T01:17:46.665Z,38
2019-04-14T01:20:57.744Z,38.1
2019-04-14T01:24:08.159Z,38.1
2019-04-14T01:27:18.888Z,38.1
2019-04-14T01:30:28.984Z,38.1
2019-04-14T01:33:40.032Z,38.1
2019-04-14T01:36:51.800Z,38.1
2019-04-14T01:40:03.166Z,38.1
2019-04-14T01:43:14.495Z,38.1
2019-04-14T01:46:30.837Z,38.1
2019-04-14T01:49:44.987Z,38.1
2019-04-14T01:52:55.044Z,38.1
2019-04-14T01:56:06.225Z,38.1
2019-04-14T01:59:17.289Z,38.1
2019-04-14T02:02:27.613Z,38
2019-04-14T02:05:38.522Z,38.1
2019-04-14T02:08:49.735Z,38
2019-04-14T02:12:00.193Z,38.1
2019-04-14T02:15:11.264Z,38
2019-04-14T02:18:22.819Z,38
2019-04-14T02:21:33.023Z,38
2019-04-14T02:24:45.902Z,38
2019-04-14T02:27:56.414Z,38
2019-04-14T02:31:43.088Z,38.1
2019-04-14T02:41:18.052Z,38
2019-04-14T02:58:51.631Z,37.9
2019-04-14T03:08:15.115Z,37.8
2019-04-14T03:17:36.591Z,37.8
2019-04-14T03:26:41.451Z,37.7
2019-04-14T03:37:28.754Z,37.8
2019-04-14T03:46:33.108Z,37.8
2019-04-14T03:54:56.263Z,37.8
2019-04-14T03:59:19.449Z,37.8
2019-04-14T04:02:32.186Z,37.7
2019-04-14T04:05:41.980Z,37.7
2019-04-14T04:08:51.641Z,37.7
2019-04-14T04:12:05.935Z,37.7
2019-04-14T04:15:15.655Z,37.7
2019-04-14T04:18:26.434Z,37.7
2019-04-14T04:22:15.645Z,37.6
2019-04-14T04:25:25.380Z,37.7
2019-04-14T04:28:36.319Z,37.7
2019-04-14T04:31:46.717Z,37.7
2019-04-14T04:34:57.511Z,37.6
2019-04-14T04:38:07.958Z,37.7
2019-04-14T04:41:18.885Z,37.5
2019-04-14T04:44:29.716Z,37.5
2019-04-14T04:47:40.495Z,37.5
2019-04-14T04:50:50.542Z,37.4
2019-04-14T04:54:00.280Z,37.3
2019-04-14T04:57:09.929Z,37.4
2019-04-14T05:00:20.599Z,37.3
2019-04-14T05:03:31.711Z,36.8
2019-04-14T05:06:43.621Z,36.3
2019-04-14T05:09:54.057Z,35.4
2019-04-14T05:13:07.989Z,35.5
2019-04-14T05:16:17.864Z,35.5
2019-04-14T05:19:36.473Z,35.9
2019-04-14T05:22:51.367Z,36
2019-04-14T05:26:01.226Z,35.3
2019-04-14T05:29:12.338Z,36.4
2019-04-14T05:32:22.359Z,36.6
2019-04-14T05:35:33.311Z,36.8
2019-04-14T05:38:43.495Z,36.7
2019-04-14T05:42:11.198Z,36.7
2019-04-14T05:45:35.762Z,37
2019-04-14T05:48:45.511Z,36.4
2019-04-14T05:51:57.500Z,36.3
2019-04-14T05:55:11.867Z,36.1
2019-04-14T05:58:21.562Z,36
2019-04-14T06:01:32.195Z,36
2019-04-14T06:04:42.370Z,35.8
2019-04-14T06:07:52.204Z,35.9
2019-04-14T06:11:00.827Z,36.1
2019-04-14T06:14:06.881Z,35.7
2019-04-14T06:17:12.839Z,35.7
2019-04-14T06:20:18.808Z,35.7
2019-04-14T06:23:24.678Z,35.5
2019-04-14T06:26:30.620Z,35.8
2019-04-14T06:29:36.572Z,35.8
2019-04-14T06:32:42.533Z,35.6
2019-04-14T06:35:48.411Z,35.5
2019-04-14T06:38:54.459Z,35.3
2019-04-14T06:42:00.523Z,35.2
2019-04-14T06:45:06.395Z,35.4
2019-04-14T06:48:12.339Z,35.5
2019-04-14T06:51:18.299Z,35.6
2019-04-14T06:54:24.362Z,35.2
2019-04-14T06:57:30.229Z,35.3
2019-04-14T07:00:36.464Z,35.1
2019-04-14T07:03:42.367Z,35.1
2019-04-14T07:06:48.412Z,35.1
2019-04-14T07:09:56.820Z,35.1
2019-04-14T07:13:02.696Z,34.9
2019-04-14T07:16:08.748Z,35
2019-04-14T07:19:14.703Z,34.8
2019-04-14T07:22:20.763Z,34.8
2019-04-14T07:25:26.762Z,34.7
2019-04-14T07:28:32.681Z,34.8
2019-04-14T07:31:38.646Z,34.7
2019-04-14T07:34:44.608Z,34.7
2019-04-14T07:37:50.663Z,34.9
2019-04-14T07:40:56.541Z,34.7
2019-04-14T07:44:02.485Z,34.8
2019-04-14T07:47:08.364Z,34.7
2019-04-14T07:50:15.785Z,34.6
2019-04-14T07:53:21.693Z,34.4
2019-04-14T07:56:27.650Z,34.6
2019-04-14T07:59:33.617Z,34.5
2019-04-14T08:02:39.569Z,34.5
2019-04-14T08:05:45.539Z,34.5
2019-04-14T08:08:51.411Z,34.4
2019-04-14T08:11:57.455Z,34.5
2019-04-14T08:15:03.327Z,34.5
2019-04-14T08:18:09.266Z,34.5
2019-04-14T08:21:15.225Z,34.4
2019-04-14T08:24:21.114Z,34.4
2019-04-14T08:27:27.043Z,34.4
2019-04-14T08:30:33.005Z,34.3
2019-04-14T08:33:38.970Z,34.2
2019-04-14T08:36:44.925Z,34.2
2019-04-14T08:39:50.823Z,34.2
2019-04-14T08:42:56.761Z,34.2
2019-04-14T08:46:02.622Z,34.2
2019-04-14T08:49:08.586Z,34
2019-04-14T08:52:14.484Z,34.1
2019-04-14T08:55:20.588Z,34
2019-04-14T08:58:26.479Z,34.1
2019-04-14T09:01:32.514Z,34
2019-04-14T09:04:38.576Z,34.1
2019-04-14T09:07:44.467Z,33.9
2019-04-14T09:10:50.417Z,33.9
2019-04-14T09:13:56.467Z,34
2019-04-14T09:17:02.525Z,34.1
2019-04-14T09:20:08.472Z,34
2019-04-14T09:23:14.438Z,33.9
2019-04-14T09:26:20.397Z,34.1
2019-04-14T09:29:26.486Z,33.9
2019-04-14T09:32:32.531Z,33.9
2019-04-14T09:35:38.580Z,33.8
2019-04-14T09:38:44.539Z,33.7
2019-04-14T09:41:50.516Z,33.6
2019-04-14T09:44:56.391Z,33.5
2019-04-14T09:48:02.422Z,33.5
2019-04-14T09:51:08.632Z,33.5
2019-04-14T09:54:14.643Z,33.6
2019-04-14T09:57:20.535Z,33.6
2019-04-14T10:00:26.581Z,33.5
2019-04-14T10:03:32.731Z,33.5
2019-04-14T10:06:41.669Z,33.4
2019-04-14T10:09:47.945Z,33.6
2019-04-14T10:12:53.986Z,33.6
2019-04-14T10:15:59.950Z,33.4
2019-04-14T10:19:06.008Z,33.4
2019-04-14T10:22:11.879Z,33.4
2019-04-14T10:25:17.838Z,33.5
2019-04-14T10:28:23.725Z,33.4
2019-04-14T10:31:29.805Z,33.4
2019-04-14T10:34:35.708Z,33.4
2019-04-14T10:37:41.673Z,33.4
2019-04-14T10:40:47.738Z,33.4
2019-04-14T10:43:53.807Z,33.5
2019-04-14T10:46:59.731Z,33.4
2019-04-14T10:50:05.716Z,33.3
2019-04-14T10:53:11.877Z,33.3
2019-04-14T10:56:17.857Z,33.1
2019-04-14T10:59:23.796Z,33.1
2019-04-14T11:02:29.761Z,33.1
2019-04-14T11:05:36.305Z,33.1
2019-04-14T11:08:42.291Z,33.1
2019-04-14T11:11:48.270Z,33.1
2019-04-14T11:14:54.132Z,33.2
2019-04-14T11:18:00.083Z,33
2019-04-14T11:21:05.940Z,33.2
2019-04-14T11:24:11.988Z,33.1
2019-04-14T11:27:17.867Z,33.4
2019-04-14T11:30:23.820Z,33.2
2019-04-14T11:33:29.765Z,33.2
2019-04-14T11:36:35.703Z,33.6
2019-04-14T11:39:41.691Z,33.6
2019-04-14T11:42:53.171Z,33.5
2019-04-14T11:45:59.134Z,33.3
2019-04-14T11:49:08.591Z,33.3
2019-04-14T11:52:14.551Z,33.2
2019-04-14T11:55:20.502Z,33.1
2019-04-14T11:58:29.035Z,33.2
2019-04-14T12:01:35.248Z,33.1
2019-04-14T12:04:41.342Z,33
2019-04-14T12:07:47.319Z,32.9
2019-04-14T12:10:53.393Z,33
2019-04-14T12:13:59.493Z,32.9
2019-04-14T12:17:05.495Z,33
2019-04-14T12:20:11.447Z,33.1
2019-04-14T12:23:17.407Z,33
2019-04-14T12:26:23.374Z,32.9
2019-04-14T12:29:30.411Z,33
2019-04-14T12:32:40.204Z,33.1
2019-04-14T12:35:46.161Z,33
2019-04-14T12:38:52.122Z,33.1
2019-04-14T12:41:58.086Z,33.1
2019-04-14T12:45:04.043Z,33.1
2019-04-14T12:48:10.020Z,33
2019-04-14T12:51:15.983Z,33.1
2019-04-14T12:54:24.614Z,33.2
2019-04-14T12:57:30.549Z,33.1
2019-04-14T13:00:36.516Z,33
2019-04-14T13:03:42.886Z,33.1
2019-04-14T13:06:48.850Z,33.1
2019-04-14T13:09:54.810Z,33
2019-04-14T13:13:00.765Z,33.1
2019-04-14T13:16:06.727Z,33
2019-04-14T13:19:12.679Z,33.1
2019-04-14T13:22:18.561Z,33.2
2019-04-14T13:25:38.112Z,33
2019-04-14T13:28:44.281Z,33.6
2019-04-14T13:31:50.443Z,33.2
2019-04-14T13:34:56.322Z,32.9
2019-04-14T13:38:02.259Z,33.3
2019-04-14T13:41:08.136Z,32.7
2019-04-14T13:44:14.184Z,32.8
2019-04-14T13:47:20.132Z,32.7
2019-04-14T13:50:26.111Z,32
2019-04-14T13:53:32.058Z,32.5
2019-04-14T13:56:37.971Z,32
2019-04-14T13:59:43.877Z,32.5
2019-04-14T14:02:49.848Z,32.4
2019-04-14T14:05:55.801Z,32.4
2019-04-14T14:09:01.753Z,32.8
2019-04-14T14:12:07.713Z,32
2019-04-14T14:15:13.675Z,31.6
2019-04-14T14:18:19.638Z,31.7
2019-04-14T14:21:25.599Z,31.5
2019-04-14T14:24:31.557Z,31.6
2019-04-14T14:27:37.433Z,31.3
2019-04-14T14:30:43.381Z,31.5
2019-04-14T14:33:49.339Z,31.4
2019-04-14T14:36:55.493Z,31.4
2019-04-14T14:40:01.459Z,31.2
2019-04-14T14:43:07.414Z,31.2
2019-04-14T14:46:13.297Z,31.1
2019-04-14T14:49:19.243Z,31.2
2019-04-14T14:52:25.197Z,31.1
2019-04-14T14:55:31.150Z,31
2019-04-14T14:58:37.223Z,31.1
2019-04-14T15:01:43.089Z,31
2019-04-14T15:04:49.132Z,31.1
2019-04-14T15:07:55.010Z,31.1
2019-04-14T15:11:05.075Z,31
2019-04-14T15:14:11.026Z,31.2
2019-04-14T15:17:16.972Z,31.1
2019-04-14T15:20:25.902Z,31
2019-04-14T15:23:31.881Z,31
2019-04-14T15:26:37.816Z,30.8
2019-04-14T15:29:43.888Z,30.9
2019-04-14T15:32:49.835Z,31.1
2019-04-14T15:35:55.726Z,31.3
2019-04-14T15:39:01.654Z,31.4
2019-04-14T15:42:07.613Z,31.5
2019-04-14T15:45:14.834Z,31.5
2019-04-14T15:48:20.880Z,31.4
2019-04-14T15:51:26.834Z,31.4
2019-04-14T15:54:32.789Z,31.5
2019-04-14T15:57:38.853Z,31.5
2019-04-14T16:00:44.808Z,31.6
2019-04-14T16:03:50.687Z,31.6
2019-04-14T16:06:56.735Z,31.6
2019-04-14T16:10:02.685Z,31.7
2019-04-14T16:13:08.594Z,31.6
2019-04-14T16:16:14.604Z,31.8
2019-04-14T16:19:20.564Z,31.8
2019-04-14T16:22:26.527Z,31.8
2019-04-14T16:25:32.412Z,31.9
2019-04-14T16:28:38.353Z,31.9
2019-04-14T16:31:44.299Z,31.8
2019-04-14T16:34:50.276Z,31.9
2019-04-14T16:37:56.227Z,31.9
2019-04-14T16:41:02.179Z,32
2019-04-14T16:44:08.253Z,32
2019-04-14T16:47:14.204Z,32
2019-04-14T16:50:20.223Z,32
2019-04-14T16:53:26.127Z,32
2019-04-14T16:56:32.088Z,32.1
2019-04-14T16:59:38.144Z,32.1
2019-04-14T17:02:44.103Z,32.2
2019-04-14T17:05:53.148Z,32.2
2019-04-14T17:08:59.086Z,32.2
2019-04-14T17:12:05.067Z,32.1
2019-04-14T17:15:11.029Z,32.2
2019-04-14T17:18:17.078Z,32.2
2019-04-14T17:21:22.974Z,32.3
2019-04-14T17:24:29.004Z,32.3
2019-04-14T17:27:34.957Z,32.3
2019-04-14T17:30:40.921Z,32.3
2019-04-14T17:33:46.997Z,32.3
2019-04-14T17:36:55.867Z,32.4
2019-04-14T17:40:01.971Z,32.3
2019-04-14T17:43:07.897Z,32.4
2019-04-14T17:46:13.939Z,32.4
2019-04-14T17:49:20.161Z,32.4
2019-04-14T17:52:26.223Z,32.4
2019-04-14T17:55:32.331Z,32.4
2019-04-14T17:58:52.964Z,32.4
2019-04-14T18:01:58.948Z,32.5
2019-04-14T18:05:04.908Z,32.5
2019-04-14T18:08:10.869Z,32.5
2019-04-14T18:11:16.780Z,32.5
2019-04-14T18:14:22.888Z,32.5
2019-04-14T18:17:31.510Z,32.5
2019-04-14T18:20:37.402Z,32.6
2019-04-14T18:23:43.430Z,32.6
2019-04-14T18:26:49.323Z,32.6
2019-04-14T18:29:55.352Z,32.6
2019-04-14T18:33:01.312Z,32.6
2019-04-14T18:36:07.186Z,32.7
2019-04-14T18:39:13.127Z,32.7
2019-04-14T18:42:19.064Z,32.7
2019-04-14T18:45:24.945Z,32.8
2019-04-14T18:48:30.906Z,32.8
2019-04-14T18:51:36.865Z,32.8
2019-04-14T18:54:55.075Z,32.8
2019-04-14T18:58:01.046Z,32.9
2019-04-14T19:01:07.059Z,32.9
2019-04-14T19:04:13.101Z,32.9
2019-04-14T19:07:19.053Z,32.9
2019-04-14T19:10:25.021Z,32.9
2019-04-14T19:13:30.919Z,33
2019-04-14T19:16:40.525Z,33
2019-04-14T19:19:46.476Z,33
2019-04-14T19:23:06.773Z,33.1
2019-04-14T19:26:12.657Z,33.1
2019-04-14T19:29:18.860Z,33.1
2019-04-14T19:32:24.868Z,33.1
2019-04-14T19:35:30.835Z,33.1
2019-04-14T19:38:36.818Z,33.1
2019-04-14T19:41:42.952Z,33.2
2019-04-14T19:44:48.925Z,33.2
2019-04-14T19:47:54.792Z,33.2
2019-04-14T19:51:00.847Z,33.2
2019-04-14T19:54:06.705Z,33.3
2019-04-14T19:57:15.335Z,33.3
2019-04-14T20:00:21.465Z,33.3
2019-04-14T20:03:27.526Z,33.3
2019-04-14T20:06:33.400Z,33.4
2019-04-14T20:09:39.665Z,33.3
2019-04-14T20:12:45.628Z,33.4
2019-04-14T20:15:51.700Z,33.3
2019-04-14T20:19:10.949Z,33.4
2019-04-14T20:22:16.906Z,33.4
2019-04-14T20:25:34.214Z,33.4
2019-04-14T20:28:40.360Z,33.4
2019-04-14T20:31:46.458Z,33.4
2019-04-14T20:34:52.530Z,33.4
2019-04-14T20:37:58.491Z,33.5
2019-04-14T20:41:04.454Z,33.5
2019-04-14T20:44:10.416Z,33.5
2019-04-14T20:47:16.482Z,33.5
2019-04-14T20:50:22.453Z,33.5
2019-04-14T20:53:28.311Z,33.5
2019-04-14T20:56:34.350Z,33.5
2019-04-14T20:59:40.241Z,33.5
2019-04-14T21:02:46.171Z,33.5
2019-04-14T21:05:52.423Z,33.5
2019-04-14T21:09:01.161Z,33.5
2019-04-14T21:12:07.028Z,33.6
2019-04-14T21:15:12.987Z,33.7
2019-04-14T21:18:18.948Z,33.6
2019-04-14T21:21:24.894Z,33.7
2019-04-14T21:24:30.852Z,33.7
2019-04-14T21:27:36.827Z,33.7
2019-04-14T21:30:42.897Z,33.8
2019-04-14T21:33:48.948Z,33.7
2019-04-14T21:36:54.899Z,33.8
2019-04-14T21:40:00.873Z,33.8
2019-04-14T21:43:06.836Z,33.9
2019-04-14T21:46:12.876Z,33.9
2019-04-14T21:49:18.837Z,33.9
2019-04-14T21:52:24.794Z,34
2019-04-14T21:55:30.774Z,34
2019-04-14T21:58:39.529Z,34
2019-04-14T22:01:45.437Z,34
2019-04-14T22:04:51.334Z,34.1
2019-04-14T22:07:57.457Z,34.1
2019-04-14T22:11:03.332Z,34.1
2019-04-14T22:14:09.274Z,34.1
2019-04-14T22:17:15.240Z,34.2
2019-04-14T22:20:21.239Z,34.2
2019-04-14T22:23:27.272Z,34.2
2019-04-14T22:26:33.217Z,34.2
2019-04-14T22:29:39.180Z,34.2
2019-04-14T22:32:45.238Z,34.2
2019-04-14T22:35:51.110Z,34.2
2019-04-14T22:38:57.163Z,34.3
2019-04-14T22:42:03.120Z,34.3
2019-04-14T22:45:09.180Z,34.4
2019-04-14T22:48:15.149Z,34.4
2019-04-14T22:51:21.106Z,34.5
2019-04-14T22:54:26.970Z,34.5
2019-04-14T22:57:32.916Z,34.7
2019-04-14T23:00:38.993Z,34.8
2019-04-14T23:03:45.054Z,34.9
2019-04-14T23:06:53.668Z,35
2019-04-14T23:09:59.740Z,35
2019-04-14T23:13:05.660Z,35.1
2019-04-14T23:16:11.650Z,35.3
2019-04-14T23:19:17.610Z,35.4
2019-04-14T23:22:23.565Z,35.5
2019-04-14T23:25:29.524Z,35.7
2019-04-14T23:28:35.484Z,35.7
2019-04-14T23:31:41.445Z,35.9
2019-04-14T23:34:47.403Z,36
2019-04-14T23:37:53.283Z,36.1
2019-04-14T23:40:59.436Z,36.2
2019-04-14T23:44:05.385Z,36.3
2019-04-14T23:47:11.452Z,36.4
2019-04-14T23:50:17.413Z,36.5
2019-04-14T23:53:23.368Z,36.6
2019-04-14T23:56:32.296Z,36.8
2019-04-14T23:59:38.257Z,36.8
